sensor_id;sensor_type;location;lat;lon;timestamp;temperature;humidity
14670;DHT22;7423;48.722;9.350;2022-10-16T00:01:34;18.40;99.90
14670;DHT22;7423;48.722;9.350;2022-10-16T00:04:02;18.40;99.90
14670;DHT22;7423;48.722;9.350;2022-10-16T00:06:30;18.40;99.90
14670;DHT22;7423;48.722;9.350;2022-10-16T00:08:57;18.30;99.90
14670;DHT22;7423;48.722;9.350;2022-10-16T00:11:30;18.30;99.90
14670;DHT22;7423;48.722;9.350;2022-10-16T00:14:01;18.30;99.90
14670;DHT22;7423;48.722;9.350;2022-10-16T00:16:29;18.30;99.90
14670;DHT22;7423;48.722;9.350;2022-10-16T00:18:57;18.30;99.90
14670;DHT22;7423;48.722;9.350;2022-10-16T00:21:26;18.30;99.90
14670;DHT22;7423;48.722;9.350;2022-10-16T00:23:56;18.30;99.90
14670;DHT22;7423;48.722;9.350;2022-10-16T00:26:27;18.30;99.90
14670;DHT22;7423;48.722;9.350;2022-10-16T00:28:54;18.20;99.90
14670;DHT22;7423;48.722;9.350;2022-10-16T00:31:23;18.20;99.90
14670;DHT22;7423;48.722;9.350;2022-10-16T00:33:50;18.20;99.90
14670;DHT22;7423;48.722;9.350;2022-10-16T00:36:21;18.20;99.90
14670;DHT22;7423;48.722;9.350;2022-10-16T00:38:53;18.20;99.90
14670;DHT22;7423;48.722;9.350;2022-10-16T00:41:23;18.20;99.90
14670;DHT22;7423;48.722;9.350;2022-10-16T00:43:56;18.20;99.90
14670;DHT22;7423;48.722;9.350;2022-10-16T00:46:41;18.10;99.90
14670;DHT22;7423;48.722;9.350;2022-10-16T00:49:15;18.10;99.90
14670;DHT22;7423;48.722;9.350;2022-10-16T00:51:45;18.10;99.90
14670;DHT22;7423;48.722;9.350;2022-10-16T00:56:59;18.10;99.90
14670;DHT22;7423;48.722;9.350;2022-10-16T00:59:31;18.00;99.90
14670;DHT22;7423;48.722;9.350;2022-10-16T01:02:00;18.00;99.90
14670;DHT22;7423;48.722;9.350;2022-10-16T01:04:33;18.00;99.90
14670;DHT22;7423;48.722;9.350;2022-10-16T01:13:14;17.90;99.90
14670;DHT22;7423;48.722;9.350;2022-10-16T01:16:15;17.90;99.90
14670;DHT22;7423;48.722;9.350;2022-10-16T01:21:18;17.90;99.90
14670;DHT22;7423;48.722;9.350;2022-10-16T01:29:24;17.80;99.90
14670;DHT22;7423;48.722;9.350;2022-10-16T01:31:57;17.80;99.90
14670;DHT22;7423;48.722;9.350;2022-10-16T01:34:41;17.80;99.90
14670;DHT22;7423;48.722;9.350;2022-10-16T01:37:22;17.80;99.90
14670;DHT22;7423;48.722;9.350;2022-10-16T01:39:58;17.80;99.90
14670;DHT22;7423;48.722;9.350;2022-10-16T01:42:41;17.70;99.90
14670;DHT22;7423;48.722;9.350;2022-10-16T01:45:13;17.80;99.90
14670;DHT22;7423;48.722;9.350;2022-10-16T01:47:45;17.80;99.90
14670;DHT22;7423;48.722;9.350;2022-10-16T01:50:14;17.70;99.90
14670;DHT22;7423;48.722;9.350;2022-10-16T01:52:45;17.70;99.90
14670;DHT22;7423;48.722;9.350;2022-10-16T01:55:18;17.60;99.90
14670;DHT22;7423;48.722;9.350;2022-10-16T01:57:51;17.70;99.90
14670;DHT22;7423;48.722;9.350;2022-10-16T02:00:20;17.80;99.90
14670;DHT22;7423;48.722;9.350;2022-10-16T02:02:50;17.70;99.90
14670;DHT22;7423;48.722;9.350;2022-10-16T02:05:37;17.70;99.90
14670;DHT22;7423;48.722;9.350;2022-10-16T02:08:07;17.70;99.90
14670;DHT22;7423;48.722;9.350;2022-10-16T02:10:35;17.30;99.90
14670;DHT22;7423;48.722;9.350;2022-10-16T02:13:10;17.60;99.90
14670;DHT22;7423;48.722;9.350;2022-10-16T02:15:39;17.60;99.90
14670;DHT22;7423;48.722;9.350;2022-10-16T02:18:07;17.60;99.90
14670;DHT22;7423;48.722;9.350;2022-10-16T02:26:05;17.60;99.90
14670;DHT22;7423;48.722;9.350;2022-10-16T02:28:42;17.60;99.90
14670;DHT22;7423;48.722;9.350;2022-10-16T02:31:19;17.60;99.90
14670;DHT22;7423;48.722;9.350;2022-10-16T02:33:53;17.60;99.90
14670;DHT22;7423;48.722;9.350;2022-10-16T02:36:21;17.50;99.90
14670;DHT22;7423;48.722;9.350;2022-10-16T02:38:49;17.60;99.90
14670;DHT22;7423;48.722;9.350;2022-10-16T02:41:16;17.60;99.90
14670;DHT22;7423;48.722;9.350;2022-10-16T02:43:42;17.60;99.90
14670;DHT22;7423;48.722;9.350;2022-10-16T02:46:09;17.60;99.90
14670;DHT22;7423;48.722;9.350;2022-10-16T02:48:36;17.60;99.90
14670;DHT22;7423;48.722;9.350;2022-10-16T02:51:03;17.60;99.90
14670;DHT22;7423;48.722;9.350;2022-10-16T02:53:30;17.60;99.90
14670;DHT22;7423;48.722;9.350;2022-10-16T02:55:57;17.60;99.90
14670;DHT22;7423;48.722;9.350;2022-10-16T02:58:24;17.70;99.90
14670;DHT22;7423;48.722;9.350;2022-10-16T03:00:51;17.70;99.90
14670;DHT22;7423;48.722;9.350;2022-10-16T03:03:18;17.70;99.90
14670;DHT22;7423;48.722;9.350;2022-10-16T03:05:44;17.60;99.90
14670;DHT22;7423;48.722;9.350;2022-10-16T03:08:14;17.60;99.90
14670;DHT22;7423;48.722;9.350;2022-10-16T03:10:41;17.70;99.90
14670;DHT22;7423;48.722;9.350;2022-10-16T03:13:08;17.60;99.90
14670;DHT22;7423;48.722;9.350;2022-10-16T03:15:34;17.60;99.90
14670;DHT22;7423;48.722;9.350;2022-10-16T03:18:01;17.60;99.90
14670;DHT22;7423;48.722;9.350;2022-10-16T03:20:28;17.60;99.90
14670;DHT22;7423;48.722;9.350;2022-10-16T03:22:55;17.60;99.90
14670;DHT22;7423;48.722;9.350;2022-10-16T03:25:22;17.60;99.90
14670;DHT22;7423;48.722;9.350;2022-10-16T03:27:49;17.60;99.90
14670;DHT22;7423;48.722;9.350;2022-10-16T03:30:15;17.50;99.90
14670;DHT22;7423;48.722;9.350;2022-10-16T03:32:44;17.60;99.90
14670;DHT22;7423;48.722;9.350;2022-10-16T03:35:11;17.50;99.90
14670;DHT22;7423;48.722;9.350;2022-10-16T03:37:38;17.60;99.90
14670;DHT22;7423;48.722;9.350;2022-10-16T03:40:05;17.50;99.90
14670;DHT22;7423;48.722;9.350;2022-10-16T03:42:32;17.50;99.90
14670;DHT22;7423;48.722;9.350;2022-10-16T03:44:59;17.50;99.90
14670;DHT22;7423;48.722;9.350;2022-10-16T03:47:26;17.50;99.90
14670;DHT22;7423;48.722;9.350;2022-10-16T03:49:53;17.50;99.90
14670;DHT22;7423;48.722;9.350;2022-10-16T03:52:20;17.50;99.90
14670;DHT22;7423;48.722;9.350;2022-10-16T03:54:47;17.40;99.90
14670;DHT22;7423;48.722;9.350;2022-10-16T03:57:14;17.40;99.90
14670;DHT22;7423;48.722;9.350;2022-10-16T03:59:40;17.40;99.90
14670;DHT22;7423;48.722;9.350;2022-10-16T04:02:07;17.40;99.90
14670;DHT22;7423;48.722;9.350;2022-10-16T04:04:34;17.40;99.90
14670;DHT22;7423;48.722;9.350;2022-10-16T04:07:01;17.40;99.90
14670;DHT22;7423;48.722;9.350;2022-10-16T04:09:28;17.40;99.90
14670;DHT22;7423;48.722;9.350;2022-10-16T04:11:55;17.40;99.90
14670;DHT22;7423;48.722;9.350;2022-10-16T04:14:21;17.30;99.90
14670;DHT22;7423;48.722;9.350;2022-10-16T04:16:48;17.40;99.90
14670;DHT22;7423;48.722;9.350;2022-10-16T04:19:15;17.40;99.90
14670;DHT22;7423;48.722;9.350;2022-10-16T04:21:42;17.40;99.90
14670;DHT22;7423;48.722;9.350;2022-10-16T04:24:09;17.40;99.90
14670;DHT22;7423;48.722;9.350;2022-10-16T04:26:37;17.30;99.90
14670;DHT22;7423;48.722;9.350;2022-10-16T04:29:04;17.40;99.90
14670;DHT22;7423;48.722;9.350;2022-10-16T04:31:31;17.30;99.90
14670;DHT22;7423;48.722;9.350;2022-10-16T04:33:58;17.30;99.90
14670;DHT22;7423;48.722;9.350;2022-10-16T04:36:25;17.30;99.90
14670;DHT22;7423;48.722;9.350;2022-10-16T04:38:54;17.30;99.90
14670;DHT22;7423;48.722;9.350;2022-10-16T04:41:22;17.30;99.90
14670;DHT22;7423;48.722;9.350;2022-10-16T04:43:48;17.30;99.90
14670;DHT22;7423;48.722;9.350;2022-10-16T04:46:15;17.30;99.90
14670;DHT22;7423;48.722;9.350;2022-10-16T04:48:42;17.30;99.90
14670;DHT22;7423;48.722;9.350;2022-10-16T04:51:09;17.30;99.90
14670;DHT22;7423;48.722;9.350;2022-10-16T04:53:36;17.30;99.90
14670;DHT22;7423;48.722;9.350;2022-10-16T04:56:03;17.30;99.90
14670;DHT22;7423;48.722;9.350;2022-10-16T04:58:30;17.30;99.90
14670;DHT22;7423;48.722;9.350;2022-10-16T05:00:56;17.20;99.90
14670;DHT22;7423;48.722;9.350;2022-10-16T05:03:23;17.20;99.90
14670;DHT22;7423;48.722;9.350;2022-10-16T05:05:50;17.20;99.90
14670;DHT22;7423;48.722;9.350;2022-10-16T05:08:17;17.20;99.90
14670;DHT22;7423;48.722;9.350;2022-10-16T05:10:45;17.20;99.90
14670;DHT22;7423;48.722;9.350;2022-10-16T05:13:12;17.20;99.90
14670;DHT22;7423;48.722;9.350;2022-10-16T05:15:39;17.20;99.90
14670;DHT22;7423;48.722;9.350;2022-10-16T05:18:06;17.20;99.90
14670;DHT22;7423;48.722;9.350;2022-10-16T05:20:32;17.20;99.90
14670;DHT22;7423;48.722;9.350;2022-10-16T05:22:59;17.20;99.90
14670;DHT22;7423;48.722;9.350;2022-10-16T05:25:26;17.20;99.90
14670;DHT22;7423;48.722;9.350;2022-10-16T05:27:53;17.20;99.90
14670;DHT22;7423;48.722;9.350;2022-10-16T05:30:20;17.20;99.90
14670;DHT22;7423;48.722;9.350;2022-10-16T05:32:48;17.20;99.90
14670;DHT22;7423;48.722;9.350;2022-10-16T05:35:16;17.30;99.90
14670;DHT22;7423;48.722;9.350;2022-10-16T05:37:44;17.20;99.90
14670;DHT22;7423;48.722;9.350;2022-10-16T05:40:11;17.20;99.90
14670;DHT22;7423;48.722;9.350;2022-10-16T05:42:40;17.20;99.90
14670;DHT22;7423;48.722;9.350;2022-10-16T05:45:09;17.20;99.90
14670;DHT22;7423;48.722;9.350;2022-10-16T05:47:36;17.20;99.90
14670;DHT22;7423;48.722;9.350;2022-10-16T05:50:04;17.20;99.90
14670;DHT22;7423;48.722;9.350;2022-10-16T05:52:31;17.10;99.90
14670;DHT22;7423;48.722;9.350;2022-10-16T05:54:57;17.10;99.90
14670;DHT22;7423;48.722;9.350;2022-10-16T05:57:24;17.10;99.90
14670;DHT22;7423;48.722;9.350;2022-10-16T05:59:51;17.10;99.90
14670;DHT22;7423;48.722;9.350;2022-10-16T06:02:18;17.10;99.90
14670;DHT22;7423;48.722;9.350;2022-10-16T06:04:45;17.10;99.90
14670;DHT22;7423;48.722;9.350;2022-10-16T06:07:12;17.10;99.90
14670;DHT22;7423;48.722;9.350;2022-10-16T06:09:39;17.10;99.90
14670;DHT22;7423;48.722;9.350;2022-10-16T06:12:06;17.00;99.90
14670;DHT22;7423;48.722;9.350;2022-10-16T06:14:33;17.10;99.90
14670;DHT22;7423;48.722;9.350;2022-10-16T06:17:00;17.10;99.90
14670;DHT22;7423;48.722;9.350;2022-10-16T06:19:27;17.10;99.90
14670;DHT22;7423;48.722;9.350;2022-10-16T06:21:53;17.10;99.90
14670;DHT22;7423;48.722;9.350;2022-10-16T06:24:20;17.10;99.90
14670;DHT22;7423;48.722;9.350;2022-10-16T06:26:47;17.10;99.90
14670;DHT22;7423;48.722;9.350;2022-10-16T06:29:14;17.00;99.90
14670;DHT22;7423;48.722;9.350;2022-10-16T06:31:41;17.10;99.90
14670;DHT22;7423;48.722;9.350;2022-10-16T06:34:09;17.10;99.90
14670;DHT22;7423;48.722;9.350;2022-10-16T06:36:38;17.10;99.90
14670;DHT22;7423;48.722;9.350;2022-10-16T06:39:06;17.10;99.90
14670;DHT22;7423;48.722;9.350;2022-10-16T06:41:34;17.10;99.90
14670;DHT22;7423;48.722;9.350;2022-10-16T06:44:01;17.10;99.90
14670;DHT22;7423;48.722;9.350;2022-10-16T06:46:31;17.10;99.90
14670;DHT22;7423;48.722;9.350;2022-10-16T06:48:58;17.10;99.90
14670;DHT22;7423;48.722;9.350;2022-10-16T06:51:25;17.10;99.90
14670;DHT22;7423;48.722;9.350;2022-10-16T06:53:54;17.20;99.90
14670;DHT22;7423;48.722;9.350;2022-10-16T06:56:31;17.20;99.90
14670;DHT22;7423;48.722;9.350;2022-10-16T06:58:59;17.20;99.90
14670;DHT22;7423;48.722;9.350;2022-10-16T07:01:27;17.20;99.90
14670;DHT22;7423;48.722;9.350;2022-10-16T07:03:55;17.30;99.90
14670;DHT22;7423;48.722;9.350;2022-10-16T07:06:25;17.30;99.90
14670;DHT22;7423;48.722;9.350;2022-10-16T07:08:53;17.30;99.90
14670;DHT22;7423;48.722;9.350;2022-10-16T07:11:22;17.40;99.90
14670;DHT22;7423;48.722;9.350;2022-10-16T07:13:51;17.40;99.90
14670;DHT22;7423;48.722;9.350;2022-10-16T07:16:27;17.40;99.90
14670;DHT22;7423;48.722;9.350;2022-10-16T07:19:00;17.40;99.90
14670;DHT22;7423;48.722;9.350;2022-10-16T07:21:33;17.50;99.90
14670;DHT22;7423;48.722;9.350;2022-10-16T07:24:05;17.50;99.90
14670;DHT22;7423;48.722;9.350;2022-10-16T07:26:35;17.50;99.90
14670;DHT22;7423;48.722;9.350;2022-10-16T07:29:03;17.50;99.90
14670;DHT22;7423;48.722;9.350;2022-10-16T07:31:30;17.60;99.90
14670;DHT22;7423;48.722;9.350;2022-10-16T07:33:59;17.60;99.90
14670;DHT22;7423;48.722;9.350;2022-10-16T07:36:26;17.60;99.90
14670;DHT22;7423;48.722;9.350;2022-10-16T07:38:54;17.60;99.90
14670;DHT22;7423;48.722;9.350;2022-10-16T07:41:25;17.60;99.90
14670;DHT22;7423;48.722;9.350;2022-10-16T07:43:53;17.70;99.90
14670;DHT22;7423;48.722;9.350;2022-10-16T07:46:22;17.70;99.90
14670;DHT22;7423;48.722;9.350;2022-10-16T07:48:49;17.70;99.90
14670;DHT22;7423;48.722;9.350;2022-10-16T07:51:18;17.60;99.90
14670;DHT22;7423;48.722;9.350;2022-10-16T07:53:46;17.80;99.90
14670;DHT22;7423;48.722;9.350;2022-10-16T07:56:15;17.70;99.90
14670;DHT22;7423;48.722;9.350;2022-10-16T07:58:42;17.80;99.90
14670;DHT22;7423;48.722;9.350;2022-10-16T08:01:13;17.80;99.90
14670;DHT22;7423;48.722;9.350;2022-10-16T08:03:50;17.90;99.90
14670;DHT22;7423;48.722;9.350;2022-10-16T08:06:19;17.80;99.90
14670;DHT22;7423;48.722;9.350;2022-10-16T08:08:53;17.80;99.90
14670;DHT22;7423;48.722;9.350;2022-10-16T08:11:21;17.90;99.90
14670;DHT22;7423;48.722;9.350;2022-10-16T08:13:49;17.90;99.90
14670;DHT22;7423;48.722;9.350;2022-10-16T08:16:16;17.90;99.90
14670;DHT22;7423;48.722;9.350;2022-10-16T08:18:43;17.90;99.90
14670;DHT22;7423;48.722;9.350;2022-10-16T08:21:15;17.90;99.90
14670;DHT22;7423;48.722;9.350;2022-10-16T08:23:47;18.00;99.90
14670;DHT22;7423;48.722;9.350;2022-10-16T08:26:22;18.00;99.90
14670;DHT22;7423;48.722;9.350;2022-10-16T08:28:50;18.00;99.90
14670;DHT22;7423;48.722;9.350;2022-10-16T08:31:18;18.00;99.90
14670;DHT22;7423;48.722;9.350;2022-10-16T08:33:45;18.10;99.90
14670;DHT22;7423;48.722;9.350;2022-10-16T08:36:14;18.10;99.90
14670;DHT22;7423;48.722;9.350;2022-10-16T08:38:42;18.10;99.90
14670;DHT22;7423;48.722;9.350;2022-10-16T08:44:02;18.20;99.90
14670;DHT22;7423;48.722;9.350;2022-10-16T08:49:16;18.30;99.90
14670;DHT22;7423;48.722;9.350;2022-10-16T08:51:44;18.30;99.90
14670;DHT22;7423;48.722;9.350;2022-10-16T08:54:32;18.40;99.90
14670;DHT22;7423;48.722;9.350;2022-10-16T08:59:52;18.50;99.90
14670;DHT22;7423;48.722;9.350;2022-10-16T09:08:10;18.50;99.90
14670;DHT22;7423;48.722;9.350;2022-10-16T09:16:39;18.60;99.90
14670;DHT22;7423;48.722;9.350;2022-10-16T09:19:38;18.60;99.90
14670;DHT22;7423;48.722;9.350;2022-10-16T09:22:14;18.60;99.90
14670;DHT22;7423;48.722;9.350;2022-10-16T09:24:42;18.60;99.90
14670;DHT22;7423;48.722;9.350;2022-10-16T09:27:13;18.70;99.90
14670;DHT22;7423;48.722;9.350;2022-10-16T09:29:41;18.80;99.90
14670;DHT22;7423;48.722;9.350;2022-10-16T09:32:14;18.80;99.90
14670;DHT22;7423;48.722;9.350;2022-10-16T09:34:50;18.90;99.90
14670;DHT22;7423;48.722;9.350;2022-10-16T09:37:21;18.90;99.90
14670;DHT22;7423;48.722;9.350;2022-10-16T09:39:54;19.00;99.90
14670;DHT22;7423;48.722;9.350;2022-10-16T09:42:27;19.00;99.90
14670;DHT22;7423;48.722;9.350;2022-10-16T09:44:57;19.10;99.90
14670;DHT22;7423;48.722;9.350;2022-10-16T09:47:26;19.20;99.90
14670;DHT22;7423;48.722;9.350;2022-10-16T09:52:29;19.10;99.90
14670;DHT22;7423;48.722;9.350;2022-10-16T09:55:02;19.30;99.90
14670;DHT22;7423;48.722;9.350;2022-10-16T09:57:53;19.30;99.90
14670;DHT22;7423;48.722;9.350;2022-10-16T10:00:22;19.30;99.90
14670;DHT22;7423;48.722;9.350;2022-10-16T10:02:50;19.40;99.90
14670;DHT22;7423;48.722;9.350;2022-10-16T10:05:28;19.40;99.90
14670;DHT22;7423;48.722;9.350;2022-10-16T10:07:59;19.50;99.90
14670;DHT22;7423;48.722;9.350;2022-10-16T10:10:31;19.50;99.90
14670;DHT22;7423;48.722;9.350;2022-10-16T10:12:59;19.10;99.90
14670;DHT22;7423;48.722;9.350;2022-10-16T10:15:29;19.60;99.90
14670;DHT22;7423;48.722;9.350;2022-10-16T10:18:00;19.70;99.90
14670;DHT22;7423;48.722;9.350;2022-10-16T10:20:31;19.70;99.90
14670;DHT22;7423;48.722;9.350;2022-10-16T10:23:13;19.80;99.90
14670;DHT22;7423;48.722;9.350;2022-10-16T10:26:23;19.80;99.90
14670;DHT22;7423;48.722;9.350;2022-10-16T10:37:35;20.10;99.90
14670;DHT22;7423;48.722;9.350;2022-10-16T10:40:23;20.20;99.90
14670;DHT22;7423;48.722;9.350;2022-10-16T10:46:12;20.40;99.90
14670;DHT22;7423;48.722;9.350;2022-10-16T11:01:12;20.70;99.90
14670;DHT22;7423;48.722;9.350;2022-10-16T11:06:19;20.80;99.90
14670;DHT22;7423;48.722;9.350;2022-10-16T11:11:45;20.90;99.90
14670;DHT22;7423;48.722;9.350;2022-10-16T11:14:46;20.90;99.90
14670;DHT22;7423;48.722;9.350;2022-10-16T11:17:26;21.00;99.90
14670;DHT22;7423;48.722;9.350;2022-10-16T11:20:05;21.00;99.90
14670;DHT22;7423;48.722;9.350;2022-10-16T11:25:31;21.10;99.90
14670;DHT22;7423;48.722;9.350;2022-10-16T11:39:50;21.60;99.90
14670;DHT22;7423;48.722;9.350;2022-10-16T11:42:40;21.70;99.90
14670;DHT22;7423;48.722;9.350;2022-10-16T11:54:59;22.10;99.90
14670;DHT22;7423;48.722;9.350;2022-10-16T11:57:35;22.20;99.90
14670;DHT22;7423;48.722;9.350;2022-10-16T12:00:21;22.20;99.90
14670;DHT22;7423;48.722;9.350;2022-10-16T12:05:58;22.30;99.90
14670;DHT22;7423;48.722;9.350;2022-10-16T12:08:45;22.40;99.90
14670;DHT22;7423;48.722;9.350;2022-10-16T12:16:55;22.80;99.90
14670;DHT22;7423;48.722;9.350;2022-10-16T12:19:26;22.90;99.90
14670;DHT22;7423;48.722;9.350;2022-10-16T12:22:00;23.00;99.90
14670;DHT22;7423;48.722;9.350;2022-10-16T12:24:39;23.10;99.90
14670;DHT22;7423;48.722;9.350;2022-10-16T12:27:30;23.10;99.90
14670;DHT22;7423;48.722;9.350;2022-10-16T12:30:00;23.10;99.90
14670;DHT22;7423;48.722;9.350;2022-10-16T12:32:35;23.10;99.90
14670;DHT22;7423;48.722;9.350;2022-10-16T12:35:28;23.10;99.90
14670;DHT22;7423;48.722;9.350;2022-10-16T12:38:37;23.20;99.90
14670;DHT22;7423;48.722;9.350;2022-10-16T12:41:07;23.20;99.90
14670;DHT22;7423;48.722;9.350;2022-10-16T12:43:38;23.20;99.90
14670;DHT22;7423;48.722;9.350;2022-10-16T12:48:38;23.20;99.90
14670;DHT22;7423;48.722;9.350;2022-10-16T13:18:05;23.50;99.90
14670;DHT22;7423;48.722;9.350;2022-10-16T13:26:35;23.50;99.90
14670;DHT22;7423;48.722;9.350;2022-10-16T13:29:32;23.50;99.90
14670;DHT22;7423;48.722;9.350;2022-10-16T13:32:00;23.60;99.90
14670;DHT22;7423;48.722;9.350;2022-10-16T13:34:29;23.60;99.90
14670;DHT22;7423;48.722;9.350;2022-10-16T13:36:55;23.60;99.90
14670;DHT22;7423;48.722;9.350;2022-10-16T13:39:27;23.60;99.90
14670;DHT22;7423;48.722;9.350;2022-10-16T13:44:43;23.60;99.90
14670;DHT22;7423;48.722;9.350;2022-10-16T13:47:19;23.60;99.90
14670;DHT22;7423;48.722;9.350;2022-10-16T13:49:59;23.60;99.90
14670;DHT22;7423;48.722;9.350;2022-10-16T13:52:28;23.60;99.90
14670;DHT22;7423;48.722;9.350;2022-10-16T13:54:55;23.60;99.90
14670;DHT22;7423;48.722;9.350;2022-10-16T13:57:28;23.60;99.90
14670;DHT22;7423;48.722;9.350;2022-10-16T13:59:55;23.60;99.90
14670;DHT22;7423;48.722;9.350;2022-10-16T14:04:57;23.70;99.90
14670;DHT22;7423;48.722;9.350;2022-10-16T14:07:27;23.70;99.90
14670;DHT22;7423;48.722;9.350;2022-10-16T14:10:03;23.70;99.90
14670;DHT22;7423;48.722;9.350;2022-10-16T14:12:32;23.70;99.90
14670;DHT22;7423;48.722;9.350;2022-10-16T14:15:00;23.70;99.90
14670;DHT22;7423;48.722;9.350;2022-10-16T14:17:30;23.70;99.90
14670;DHT22;7423;48.722;9.350;2022-10-16T14:20:02;23.70;99.90
14670;DHT22;7423;48.722;9.350;2022-10-16T14:22:40;23.70;99.90
14670;DHT22;7423;48.722;9.350;2022-10-16T14:28:01;23.60;99.90
14670;DHT22;7423;48.722;9.350;2022-10-16T14:30:32;23.60;99.90
14670;DHT22;7423;48.722;9.350;2022-10-16T14:33:06;23.60;99.90
14670;DHT22;7423;48.722;9.350;2022-10-16T14:35:45;23.60;99.90
14670;DHT22;7423;48.722;9.350;2022-10-16T14:38:19;23.60;99.90
14670;DHT22;7423;48.722;9.350;2022-10-16T14:40:48;23.60;99.90
14670;DHT22;7423;48.722;9.350;2022-10-16T14:46:06;23.50;99.90
14670;DHT22;7423;48.722;9.350;2022-10-16T14:48:36;23.50;99.90
14670;DHT22;7423;48.722;9.350;2022-10-16T14:51:13;23.50;99.90
14670;DHT22;7423;48.722;9.350;2022-10-16T14:53:41;23.50;99.90
14670;DHT22;7423;48.722;9.350;2022-10-16T14:56:29;23.30;99.90
14670;DHT22;7423;48.722;9.350;2022-10-16T14:59:00;23.40;99.90
14670;DHT22;7423;48.722;9.350;2022-10-16T15:01:39;23.40;99.90
14670;DHT22;7423;48.722;9.350;2022-10-16T15:04:09;23.40;99.90
14670;DHT22;7423;48.722;9.350;2022-10-16T15:06:38;23.40;99.90
14670;DHT22;7423;48.722;9.350;2022-10-16T15:09:05;23.40;99.90
14670;DHT22;7423;48.722;9.350;2022-10-16T15:11:32;23.30;99.90
14670;DHT22;7423;48.722;9.350;2022-10-16T15:13:59;23.30;99.90
14670;DHT22;7423;48.722;9.350;2022-10-16T15:16:26;23.30;99.90
14670;DHT22;7423;48.722;9.350;2022-10-16T15:18:53;23.30;99.90
14670;DHT22;7423;48.722;9.350;2022-10-16T15:23:54;23.20;99.90
14670;DHT22;7423;48.722;9.350;2022-10-16T15:26:21;23.20;99.90
14670;DHT22;7423;48.722;9.350;2022-10-16T15:28:48;23.20;99.90
14670;DHT22;7423;48.722;9.350;2022-10-16T15:31:15;23.20;99.90
14670;DHT22;7423;48.722;9.350;2022-10-16T15:33:42;23.20;99.90
14670;DHT22;7423;48.722;9.350;2022-10-16T15:36:09;23.20;99.90
14670;DHT22;7423;48.722;9.350;2022-10-16T15:38:36;23.20;99.90
14670;DHT22;7423;48.722;9.350;2022-10-16T15:41:03;23.20;99.90
14670;DHT22;7423;48.722;9.350;2022-10-16T15:43:30;23.20;99.90
14670;DHT22;7423;48.722;9.350;2022-10-16T15:46:05;23.20;99.90
14670;DHT22;7423;48.722;9.350;2022-10-16T15:48:34;23.20;99.90
14670;DHT22;7423;48.722;9.350;2022-10-16T15:51:05;23.10;99.90
14670;DHT22;7423;48.722;9.350;2022-10-16T15:53:33;23.10;99.90
14670;DHT22;7423;48.722;9.350;2022-10-16T15:56:05;23.10;99.90
14670;DHT22;7423;48.722;9.350;2022-10-16T15:58:33;23.00;99.90
14670;DHT22;7423;48.722;9.350;2022-10-16T16:01:01;22.90;99.90
14670;DHT22;7423;48.722;9.350;2022-10-16T16:03:28;22.90;99.90
14670;DHT22;7423;48.722;9.350;2022-10-16T16:05:55;22.80;99.90
14670;DHT22;7423;48.722;9.350;2022-10-16T16:08:22;22.80;99.90
14670;DHT22;7423;48.722;9.350;2022-10-16T16:11:04;22.70;99.90
14670;DHT22;7423;48.722;9.350;2022-10-16T16:13:33;22.70;99.90
14670;DHT22;7423;48.722;9.350;2022-10-16T16:16:00;22.60;99.90
14670;DHT22;7423;48.722;9.350;2022-10-16T16:18:27;22.50;99.90
14670;DHT22;7423;48.722;9.350;2022-10-16T16:20:55;22.40;99.90
14670;DHT22;7423;48.722;9.350;2022-10-16T16:23:22;22.30;99.90
14670;DHT22;7423;48.722;9.350;2022-10-16T16:28:53;22.20;99.90
14670;DHT22;7423;48.722;9.350;2022-10-16T16:31:24;22.20;99.90
14670;DHT22;7423;48.722;9.350;2022-10-16T16:33:52;22.20;99.90
14670;DHT22;7423;48.722;9.350;2022-10-16T16:36:19;22.20;99.90
14670;DHT22;7423;48.722;9.350;2022-10-16T16:38:46;22.00;99.90
14670;DHT22;7423;48.722;9.350;2022-10-16T16:41:15;22.00;99.90
14670;DHT22;7423;48.722;9.350;2022-10-16T16:43:46;22.00;99.90
14670;DHT22;7423;48.722;9.350;2022-10-16T16:46:14;21.90;99.90
14670;DHT22;7423;48.722;9.350;2022-10-16T16:48:41;21.90;99.90
14670;DHT22;7423;48.722;9.350;2022-10-16T16:51:14;21.90;99.90
14670;DHT22;7423;48.722;9.350;2022-10-16T16:53:43;21.80;99.90
14670;DHT22;7423;48.722;9.350;2022-10-16T16:56:12;21.80;99.90
14670;DHT22;7423;48.722;9.350;2022-10-16T16:58:39;21.80;99.90
14670;DHT22;7423;48.722;9.350;2022-10-16T17:01:06;21.70;99.90
14670;DHT22;7423;48.722;9.350;2022-10-16T17:03:58;21.80;99.90
14670;DHT22;7423;48.722;9.350;2022-10-16T17:06:29;21.70;99.90
14670;DHT22;7423;48.722;9.350;2022-10-16T17:08:56;21.60;99.90
14670;DHT22;7423;48.722;9.350;2022-10-16T17:11:26;21.80;99.90
14670;DHT22;7423;48.722;9.350;2022-10-16T17:13:55;21.60;99.90
14670;DHT22;7423;48.722;9.350;2022-10-16T17:16:25;21.60;99.90
14670;DHT22;7423;48.722;9.350;2022-10-16T17:18:54;21.50;99.90
14670;DHT22;7423;48.722;9.350;2022-10-16T17:21:22;21.50;99.90
14670;DHT22;7423;48.722;9.350;2022-10-16T17:23:51;21.50;99.90
14670;DHT22;7423;48.722;9.350;2022-10-16T17:26:18;21.40;99.90
14670;DHT22;7423;48.722;9.350;2022-10-16T17:28:45;21.40;99.90
14670;DHT22;7423;48.722;9.350;2022-10-16T17:31:18;21.30;99.90
14670;DHT22;7423;48.722;9.350;2022-10-16T17:33:46;21.30;99.90
14670;DHT22;7423;48.722;9.350;2022-10-16T17:36:14;21.20;99.90
14670;DHT22;7423;48.722;9.350;2022-10-16T17:38:41;21.20;99.90
14670;DHT22;7423;48.722;9.350;2022-10-16T17:41:23;21.20;99.90
14670;DHT22;7423;48.722;9.350;2022-10-16T17:43:51;21.10;99.90
14670;DHT22;7423;48.722;9.350;2022-10-16T17:46:20;21.10;99.90
14670;DHT22;7423;48.722;9.350;2022-10-16T17:48:50;21.00;99.90
14670;DHT22;7423;48.722;9.350;2022-10-16T17:51:22;21.00;99.90
14670;DHT22;7423;48.722;9.350;2022-10-16T17:53:53;21.00;99.90
14670;DHT22;7423;48.722;9.350;2022-10-16T17:56:21;21.00;99.90
14670;DHT22;7423;48.722;9.350;2022-10-16T17:58:50;20.90;99.90
14670;DHT22;7423;48.722;9.350;2022-10-16T18:01:31;20.90;99.90
14670;DHT22;7423;48.722;9.350;2022-10-16T18:04:07;20.90;99.90
14670;DHT22;7423;48.722;9.350;2022-10-16T18:06:36;20.90;99.90
14670;DHT22;7423;48.722;9.350;2022-10-16T18:09:04;20.80;99.90
14670;DHT22;7423;48.722;9.350;2022-10-16T18:11:34;20.70;99.90
14670;DHT22;7423;48.722;9.350;2022-10-16T18:14:01;20.70;99.90
14670;DHT22;7423;48.722;9.350;2022-10-16T18:16:29;20.70;99.90
14670;DHT22;7423;48.722;9.350;2022-10-16T18:18:57;20.70;99.90
14670;DHT22;7423;48.722;9.350;2022-10-16T18:21:25;20.50;99.90
14670;DHT22;7423;48.722;9.350;2022-10-16T18:23:53;20.60;99.90
14670;DHT22;7423;48.722;9.350;2022-10-16T18:26:21;20.50;99.90
14670;DHT22;7423;48.722;9.350;2022-10-16T18:28:51;20.50;99.90
14670;DHT22;7423;48.722;9.350;2022-10-16T18:31:19;20.40;99.90
14670;DHT22;7423;48.722;9.350;2022-10-16T18:33:49;20.40;99.90
14670;DHT22;7423;48.722;9.350;2022-10-16T18:36:28;20.30;99.90
14670;DHT22;7423;48.722;9.350;2022-10-16T18:39:00;20.30;99.90
14670;DHT22;7423;48.722;9.350;2022-10-16T18:41:29;20.30;99.90
14670;DHT22;7423;48.722;9.350;2022-10-16T18:43:58;20.20;99.90
14670;DHT22;7423;48.722;9.350;2022-10-16T18:46:25;20.20;99.90